<?xml version="1.0" encoding="UTF-8" standalone="no" ?>
<gpx xmlns="http://www.topografix.com/GPX/1/1" xmlns:xsi="http://www.w3.org/2001/XMLSchema-instance" xsi:schemaLocation="http://www.topografix.com/GPX/1/1 http://www.topografix.com/GPX/1/1/gpx.xsd" version="1.1" creator="VisuGPX - https://www.visugpx.com">
  <metadata>
    <name>17 Juin - Tassa Wirgane vers Azzerfssan</name>
    <desc><![CDATA[17 Juin
1er jour
Tassa Wirgane vers Azzerfssan]]></desc>
  </metadata>
  <trk>
    <name><![CDATA[2018-06-17 12:37:07]]></name>
    <trkseg>
      <trkpt lat="31.16563" lon="-8.02967">
        <ele>1097.45</ele>
        <time>2018-06-17T10:06:13Z</time>
      </trkpt>
      <trkpt lat="31.16554" lon="-8.02917">
        <ele>1104.46</ele>
        <time>2018-06-17T10:07:13Z</time>
      </trkpt>
      <trkpt lat="31.16512" lon="-8.0286">
        <ele>1113.68</ele>
        <time>2018-06-17T10:08:13Z</time>
      </trkpt>
      <trkpt lat="31.16483" lon="-8.0282">
        <ele>1120.41</ele>
        <time>2018-06-17T10:09:13Z</time>
      </trkpt>
      <trkpt lat="31.16451" lon="-8.0279">
        <ele>1127.38</ele>
        <time>2018-06-17T10:10:13Z</time>
      </trkpt>
      <trkpt lat="31.16407" lon="-8.02756">
        <ele>1134.57</ele>
        <time>2018-06-17T10:11:13Z</time>
      </trkpt>
      <trkpt lat="31.16367" lon="-8.0273">
        <ele>1140.88</ele>
        <time>2018-06-17T10:12:13Z</time>
      </trkpt>
      <trkpt lat="31.16335" lon="-8.02656">
        <ele>1150.05</ele>
        <time>2018-06-17T10:13:13Z</time>
      </trkpt>
      <trkpt lat="31.16319" lon="-8.0258">
        <ele>1154.67</ele>
        <time>2018-06-17T10:14:13Z</time>
      </trkpt>
      <trkpt lat="31.16366" lon="-8.02534">
        <ele>1158.8</ele>
        <time>2018-06-17T10:15:13Z</time>
      </trkpt>
      <trkpt lat="31.16408" lon="-8.02495">
        <ele>1159.24</ele>
        <time>2018-06-17T10:16:13Z</time>
      </trkpt>
      <trkpt lat="31.16461" lon="-8.02448">
        <ele>1159.79</ele>
        <time>2018-06-17T10:17:13Z</time>
      </trkpt>
      <trkpt lat="31.16511" lon="-8.02434">
        <ele>1162.56</ele>
        <time>2018-06-17T10:18:13Z</time>
      </trkpt>
      <trkpt lat="31.16582" lon="-8.02406">
        <ele>1159.77</ele>
        <time>2018-06-17T10:19:13Z</time>
      </trkpt>
      <trkpt lat="31.16616" lon="-8.02352">
        <ele>1162.97</ele>
        <time>2018-06-17T10:20:13Z</time>
      </trkpt>
      <trkpt lat="31.16634" lon="-8.02316">
        <ele>1167.28</ele>
        <time>2018-06-17T10:21:13Z</time>
      </trkpt>
      <trkpt lat="31.16629" lon="-8.02235">
        <ele>1172.37</ele>
        <time>2018-06-17T10:22:13Z</time>
      </trkpt>
      <trkpt lat="31.1669" lon="-8.02177">
        <ele>1168.77</ele>
        <time>2018-06-17T10:23:13Z</time>
      </trkpt>
      <trkpt lat="31.16674" lon="-8.02083">
        <ele>1164.81</ele>
        <time>2018-06-17T10:24:13Z</time>
      </trkpt>
      <trkpt lat="31.16649" lon="-8.02027">
        <ele>1168.66</ele>
        <time>2018-06-17T10:25:13Z</time>
      </trkpt>
      <trkpt lat="31.16638" lon="-8.01962">
        <ele>1171.83</ele>
        <time>2018-06-17T10:26:13Z</time>
      </trkpt>
      <trkpt lat="31.16669" lon="-8.01896">
        <ele>1181.27</ele>
        <time>2018-06-17T10:27:13Z</time>
      </trkpt>
      <trkpt lat="31.1669" lon="-8.01854">
        <ele>1188.19</ele>
        <time>2018-06-17T10:28:13Z</time>
      </trkpt>
      <trkpt lat="31.1668" lon="-8.0179">
        <ele>1197.17</ele>
        <time>2018-06-17T10:29:13Z</time>
      </trkpt>
      <trkpt lat="31.16721" lon="-8.01761">
        <ele>1205.81</ele>
        <time>2018-06-17T10:30:13Z</time>
      </trkpt>
      <trkpt lat="31.16763" lon="-8.01729">
        <ele>1213.33</ele>
        <time>2018-06-17T10:31:13Z</time>
      </trkpt>
      <trkpt lat="31.16802" lon="-8.01667">
        <ele>1219.55</ele>
        <time>2018-06-17T10:32:13Z</time>
      </trkpt>
      <trkpt lat="31.16821" lon="-8.01602">
        <ele>1221.38</ele>
        <time>2018-06-17T10:33:13Z</time>
      </trkpt>
      <trkpt lat="31.16827" lon="-8.01583">
        <ele>1221.66</ele>
        <time>2018-06-17T10:34:13Z</time>
      </trkpt>
      <trkpt lat="31.16824" lon="-8.01574">
        <ele>1221.75</ele>
        <time>2018-06-17T10:35:13Z</time>
      </trkpt>
      <trkpt lat="31.16823" lon="-8.01567">
        <ele>1222.13</ele>
        <time>2018-06-17T10:36:13Z</time>
      </trkpt>
      <trkpt lat="31.16824" lon="-8.01571">
        <ele>1222.26</ele>
        <time>2018-06-17T10:37:13Z</time>
      </trkpt>
      <trkpt lat="31.16834" lon="-8.01501">
        <ele>1221.98</ele>
        <time>2018-06-17T10:38:13Z</time>
      </trkpt>
      <trkpt lat="31.16833" lon="-8.01427">
        <ele>1221.35</ele>
        <time>2018-06-17T10:39:13Z</time>
      </trkpt>
      <trkpt lat="31.16838" lon="-8.01348">
        <ele>1218.22</ele>
        <time>2018-06-17T10:40:13Z</time>
      </trkpt>
      <trkpt lat="31.16833" lon="-8.01273">
        <ele>1223.34</ele>
        <time>2018-06-17T10:41:13Z</time>
      </trkpt>
      <trkpt lat="31.16871" lon="-8.01212">
        <ele>1229.92</ele>
        <time>2018-06-17T10:42:13Z</time>
      </trkpt>
      <trkpt lat="31.1691" lon="-8.01153">
        <ele>1234.08</ele>
        <time>2018-06-17T10:43:13Z</time>
      </trkpt>
      <trkpt lat="31.16956" lon="-8.01093">
        <ele>1235.46</ele>
        <time>2018-06-17T10:44:13Z</time>
      </trkpt>
      <trkpt lat="31.16999" lon="-8.01027">
        <ele>1233.83</ele>
        <time>2018-06-17T10:45:13Z</time>
      </trkpt>
      <trkpt lat="31.17" lon="-8.00945">
        <ele>1235.55</ele>
        <time>2018-06-17T10:46:13Z</time>
      </trkpt>
      <trkpt lat="31.16999" lon="-8.00888">
        <ele>1238.68</ele>
        <time>2018-06-17T10:47:13Z</time>
      </trkpt>
      <trkpt lat="31.16999" lon="-8.00881">
        <ele>1238.91</ele>
        <time>2018-06-17T10:48:13Z</time>
      </trkpt>
      <trkpt lat="31.17006" lon="-8.00827">
        <ele>1244.34</ele>
        <time>2018-06-17T10:49:13Z</time>
      </trkpt>
      <trkpt lat="31.17018" lon="-8.00758">
        <ele>1248.51</ele>
        <time>2018-06-17T10:50:13Z</time>
      </trkpt>
      <trkpt lat="31.17007" lon="-8.00679">
        <ele>1252.59</ele>
        <time>2018-06-17T10:51:13Z</time>
      </trkpt>
      <trkpt lat="31.17003" lon="-8.00609">
        <ele>1257.95</ele>
        <time>2018-06-17T10:52:13Z</time>
      </trkpt>
      <trkpt lat="31.16997" lon="-8.00528">
        <ele>1262.69</ele>
        <time>2018-06-17T10:53:13Z</time>
      </trkpt>
      <trkpt lat="31.17001" lon="-8.00474">
        <ele>1273.12</ele>
        <time>2018-06-17T10:54:13Z</time>
      </trkpt>
      <trkpt lat="31.16995" lon="-8.00399">
        <ele>1281.03</ele>
        <time>2018-06-17T10:55:13Z</time>
      </trkpt>
      <trkpt lat="31.17001" lon="-8.00333">
        <ele>1284.58</ele>
        <time>2018-06-17T10:56:13Z</time>
      </trkpt>
      <trkpt lat="31.16997" lon="-8.00254">
        <ele>1288.05</ele>
        <time>2018-06-17T10:57:13Z</time>
      </trkpt>
      <trkpt lat="31.17013" lon="-8.002">
        <ele>1296.98</ele>
        <time>2018-06-17T10:58:13Z</time>
      </trkpt>
      <trkpt lat="31.17007" lon="-8.00135">
        <ele>1305.01</ele>
        <time>2018-06-17T10:59:13Z</time>
      </trkpt>
      <trkpt lat="31.16997" lon="-8.00058">
        <ele>1308.33</ele>
        <time>2018-06-17T11:00:13Z</time>
      </trkpt>
      <trkpt lat="31.16994" lon="-8.00033">
        <ele>1309.33</ele>
        <time>2018-06-17T11:01:13Z</time>
      </trkpt>
      <trkpt lat="31.16994" lon="-8.00033">
        <ele>1309.31</ele>
        <time>2018-06-17T11:02:14Z</time>
      </trkpt>
      <trkpt lat="31.16994" lon="-8.00031">
        <ele>1309.25</ele>
        <time>2018-06-17T11:03:14Z</time>
      </trkpt>
      <trkpt lat="31.16993" lon="-8.00034">
        <ele>1308.8</ele>
        <time>2018-06-17T11:04:15Z</time>
      </trkpt>
      <trkpt lat="31.16994" lon="-8.00032">
        <ele>1308.95</ele>
        <time>2018-06-17T11:05:15Z</time>
      </trkpt>
      <trkpt lat="31.16985" lon="-8.00032">
        <ele>1309.34</ele>
        <time>2018-06-17T11:06:16Z</time>
      </trkpt>
      <trkpt lat="31.16983" lon="-8.00033">
        <ele>1309.03</ele>
        <time>2018-06-17T11:07:16Z</time>
      </trkpt>
      <trkpt lat="31.16988" lon="-8.00034">
        <ele>1308.41</ele>
        <time>2018-06-17T11:08:16Z</time>
      </trkpt>
      <trkpt lat="31.16986" lon="-8.00035">
        <ele>1309.05</ele>
        <time>2018-06-17T11:09:16Z</time>
      </trkpt>
      <trkpt lat="31.16961" lon="-8.00026">
        <ele>1312.29</ele>
        <time>2018-06-17T11:10:16Z</time>
      </trkpt>
      <trkpt lat="31.16934" lon="-8.00002">
        <ele>1314.25</ele>
        <time>2018-06-17T11:11:16Z</time>
      </trkpt>
      <trkpt lat="31.16908" lon="-7.9997">
        <ele>1318.65</ele>
        <time>2018-06-17T11:12:16Z</time>
      </trkpt>
      <trkpt lat="31.16884" lon="-7.99907">
        <ele>1325.44</ele>
        <time>2018-06-17T11:13:16Z</time>
      </trkpt>
      <trkpt lat="31.16856" lon="-7.99859">
        <ele>1331.39</ele>
        <time>2018-06-17T11:14:16Z</time>
      </trkpt>
      <trkpt lat="31.16851" lon="-7.99862">
        <ele>1330.58</ele>
        <time>2018-06-17T11:15:18Z</time>
      </trkpt>
      <trkpt lat="31.16901" lon="-7.99798">
        <ele>1339.78</ele>
        <time>2018-06-17T11:16:18Z</time>
      </trkpt>
      <trkpt lat="31.16918" lon="-7.9972">
        <ele>1344.64</ele>
        <time>2018-06-17T11:17:18Z</time>
      </trkpt>
      <trkpt lat="31.16919" lon="-7.99645">
        <ele>1352.54</ele>
        <time>2018-06-17T11:18:18Z</time>
      </trkpt>
      <trkpt lat="31.16888" lon="-7.9957">
        <ele>1360.54</ele>
        <time>2018-06-17T11:19:18Z</time>
      </trkpt>
      <trkpt lat="31.16857" lon="-7.99528">
        <ele>1361.53</ele>
        <time>2018-06-17T11:20:18Z</time>
      </trkpt>
      <trkpt lat="31.16832" lon="-7.99469">
        <ele>1363.97</ele>
        <time>2018-06-17T11:21:18Z</time>
      </trkpt>
      <trkpt lat="31.16816" lon="-7.99428">
        <ele>1367.95</ele>
        <time>2018-06-17T11:22:18Z</time>
      </trkpt>
      <trkpt lat="31.1681" lon="-7.99394">
        <ele>1369.27</ele>
        <time>2018-06-17T11:23:18Z</time>
      </trkpt>
      <trkpt lat="31.16763" lon="-7.99355">
        <ele>1371.34</ele>
        <time>2018-06-17T11:24:18Z</time>
      </trkpt>
      <trkpt lat="31.16722" lon="-7.99332">
        <ele>1374.84</ele>
        <time>2018-06-17T11:25:18Z</time>
      </trkpt>
      <trkpt lat="31.1668" lon="-7.99327">
        <ele>1376.98</ele>
        <time>2018-06-17T11:26:18Z</time>
      </trkpt>
      <trkpt lat="31.16685" lon="-7.99332">
        <ele>1376.2</ele>
        <time>2018-06-17T11:27:18Z</time>
      </trkpt>
      <trkpt lat="31.16685" lon="-7.99329">
        <ele>1377.01</ele>
        <time>2018-06-17T11:28:18Z</time>
      </trkpt>
      <trkpt lat="31.16674" lon="-7.99325">
        <ele>1376.63</ele>
        <time>2018-06-17T11:29:18Z</time>
      </trkpt>
      <trkpt lat="31.16671" lon="-7.99327">
        <ele>1376.22</ele>
        <time>2018-06-17T11:30:18Z</time>
      </trkpt>
      <trkpt lat="31.16658" lon="-7.99342">
        <ele>1369.94</ele>
        <time>2018-06-17T11:31:19Z</time>
      </trkpt>
      <trkpt lat="31.16666" lon="-7.99362">
        <ele>1366.32</ele>
        <time>2018-06-17T11:32:19Z</time>
      </trkpt>
      <trkpt lat="31.16665" lon="-7.99385">
        <ele>1359.54</ele>
        <time>2018-06-17T11:33:19Z</time>
      </trkpt>
      <trkpt lat="31.16671" lon="-7.99384">
        <ele>1359.48</ele>
        <time>2018-06-17T11:34:19Z</time>
      </trkpt>
      <trkpt lat="31.1668" lon="-7.9938">
        <ele>1358.84</ele>
        <time>2018-06-17T11:35:19Z</time>
      </trkpt>
      <trkpt lat="31.1668" lon="-7.99386">
        <ele>1359.03</ele>
        <time>2018-06-17T11:36:19Z</time>
      </trkpt>
      <trkpt lat="31.16682" lon="-7.99382">
        <ele>1358.93</ele>
        <time>2018-06-17T11:37:06Z</time>
      </trkpt>
    </trkseg>
  </trk>
</gpx>